Archival Weather

Snohomish County (Paine Fld)

Everett, Washington (KPAE)

Report from: Sunday, November 19, 2023 5:00 AM PST
Current time: Monday, June 17, 2024 1:39 AM PDT

Current weather – Weather history – Daily summaries
Weather forecast

Present weatherLight rain, mist
Temperature7.8°C (46.0°F)
Wind chill6.6°C (43.8°F)
Dew point6.1°C (43.0°F)
Winds 4 kts (2.1 m/s, 4.6 mph) Southeast (140°)
Visibility6 mi. (9.7 km)
Clouds Ceiling: Broken clouds 2,500 ft. (762 m)
Overcast 3,400 ft. (1,036 m)
Altimeter30.01 in.Hg (1016 mB)
PrecipitiationTrace
Precip. events Rain began 12:58 PM
Relative humidity89 %
Density altitude-831 ft. (-253 m)
Remarks Fully automated report
Automated weather observing station with precipitation discriminator
Pressure rising rapidly
Flight conditions Marginal Visual Meteorological Conditions
Raw dataKPAE 191300Z AUTO 14004KT 6SM -RA BR BKN025 OVC034 08/06 A3001 RMK AO2 RAB1258 PRESRR P0000 T00780061
An error has occurred. This application may no longer respond until reloaded. Reload 🗙